createdAt,value
2023-08-30T00:00:39.577Z,100.00
2023-08-30T00:03:09.450Z,100.00
2023-08-30T00:05:41.092Z,100.00
2023-08-30T00:08:10.152Z,100.00
2023-08-30T00:10:39.042Z,100.00
2023-08-30T00:13:07.664Z,100.00
2023-08-30T00:15:35.960Z,100.00
2023-08-30T00:18:05.136Z,100.00
2023-08-30T00:20:35.119Z,100.00
2023-08-30T00:23:04.413Z,100.00
2023-08-30T00:25:32.645Z,100.00
2023-08-30T00:28:00.850Z,100.00
2023-08-30T00:30:29.575Z,100.00
2023-08-30T00:32:57.875Z,100.00
2023-08-30T00:35:26.282Z,100.00
2023-08-30T00:37:55.989Z,100.00
2023-08-30T00:40:25.078Z,100.00
2023-08-30T00:42:53.848Z,100.00
2023-08-30T00:45:22.001Z,100.00
2023-08-30T00:47:50.657Z,100.00
2023-08-30T00:50:20.207Z,100.00
2023-08-30T00:52:48.668Z,100.00
2023-08-30T00:55:18.723Z,100.00
2023-08-30T00:57:48.604Z,100.00
2023-08-30T01:00:18.149Z,100.00
2023-08-30T01:02:47.258Z,100.00
2023-08-30T01:05:16.092Z,100.00
2023-08-30T01:07:45.239Z,100.00
2023-08-30T01:10:13.613Z,100.00
2023-08-30T01:12:47.892Z,100.00
2023-08-30T01:15:22.177Z,100.00
2023-08-30T01:17:52.858Z,100.00
2023-08-30T01:20:23.474Z,100.00
2023-08-30T01:23:03.102Z,100.00
2023-08-30T01:25:35.370Z,100.00
2023-08-30T01:28:08.393Z,100.00
2023-08-30T01:30:39.872Z,100.00
2023-08-30T01:33:09.926Z,100.00
2023-08-30T01:35:38.766Z,100.00
2023-08-30T01:38:10.798Z,100.00
2023-08-30T01:40:41.890Z,100.00
2023-08-30T01:43:12.988Z,100.00
2023-08-30T01:45:44.342Z,100.00
2023-08-30T01:48:14.992Z,100.00
2023-08-30T01:50:45.254Z,100.00
2023-08-30T01:53:15.509Z,100.00
2023-08-30T01:55:44.974Z,100.00
2023-08-30T01:58:14.631Z,100.00
2023-08-30T02:00:44.450Z,100.00
2023-08-30T02:03:14.214Z,100.00
2023-08-30T02:06:00.486Z,100.00
2023-08-30T02:08:37.732Z,100.00
2023-08-30T02:11:10.039Z,100.00
2023-08-30T02:13:41.911Z,100.00
2023-08-30T02:16:11.861Z,100.00
2023-08-30T02:18:40.907Z,100.00
2023-08-30T02:21:09.366Z,100.00
2023-08-30T02:23:37.868Z,100.00
2023-08-30T02:26:06.308Z,100.00
2023-08-30T02:28:35.085Z,100.00
2023-08-30T02:31:04.683Z,100.00
2023-08-30T02:33:32.879Z,100.00
2023-08-30T02:36:01.050Z,100.00
2023-08-30T02:38:29.333Z,100.00
2023-08-30T02:40:57.761Z,100.00
2023-08-30T02:43:26.537Z,100.00
2023-08-30T02:45:54.939Z,100.00
2023-08-30T02:48:24.729Z,100.00
2023-08-30T02:50:52.880Z,100.00
2023-08-30T02:53:21.546Z,100.00
2023-08-30T02:55:50.077Z,100.00
2023-08-30T02:58:18.304Z,100.00
2023-08-30T03:00:46.651Z,100.00
2023-08-30T03:03:15.200Z,100.00
2023-08-30T03:05:44.933Z,100.00
2023-08-30T03:08:13.432Z,100.00
2023-08-30T03:10:41.764Z,100.00
2023-08-30T03:13:10.799Z,100.00
2023-08-30T03:15:39.237Z,100.00
2023-08-30T03:18:07.997Z,100.00
2023-08-30T03:20:36.465Z,100.00
2023-08-30T03:23:06.291Z,100.00
2023-08-30T03:25:35.523Z,100.00
2023-08-30T03:28:04.390Z,100.00
2023-08-30T03:30:33.093Z,100.00
2023-08-30T03:33:01.356Z,100.00
2023-08-30T03:35:29.613Z,100.00
2023-08-30T03:37:58.170Z,100.00
2023-08-30T03:40:28.894Z,100.00
2023-08-30T03:42:56.970Z,100.00
2023-08-30T03:45:25.155Z,100.00
2023-08-30T03:47:54.445Z,100.00
2023-08-30T03:50:22.664Z,100.00
2023-08-30T03:52:50.869Z,100.00
2023-08-30T03:55:19.200Z,100.00
2023-08-30T03:57:48.965Z,100.00
2023-08-30T04:00:17.348Z,100.00
2023-08-30T04:02:46.371Z,100.00
2023-08-30T04:05:14.948Z,100.00
2023-08-30T04:07:43.273Z,100.00
2023-08-30T04:10:11.706Z,100.00
2023-08-30T04:12:40.324Z,100.00
2023-08-30T04:15:11.724Z,100.00
2023-08-30T04:17:39.917Z,100.00
2023-08-30T04:20:11.611Z,100.00
2023-08-30T04:22:39.813Z,100.00
2023-08-30T04:25:10.395Z,100.00
2023-08-30T04:27:38.712Z,100.00
2023-08-30T04:30:08.191Z,100.00
2023-08-30T04:32:38.026Z,100.00
2023-08-30T04:35:06.469Z,100.00
2023-08-30T04:37:34.576Z,100.00
2023-08-30T04:40:04.628Z,100.00
2023-08-30T04:42:32.951Z,100.00
2023-08-30T04:45:01.928Z,100.00
2023-08-30T04:47:30.501Z,100.00
2023-08-30T04:50:01.028Z,100.00
2023-08-30T04:52:29.686Z,100.00
2023-08-30T04:54:59.593Z,100.00
2023-08-30T04:57:29.453Z,100.00
2023-08-30T05:00:00.807Z,100.00
2023-08-30T05:02:29.172Z,100.00
2023-08-30T05:05:09.464Z,100.00
2023-08-30T05:07:37.780Z,100.00
2023-08-30T05:10:07.364Z,100.00
2023-08-30T05:12:36.491Z,100.00
2023-08-30T05:15:06.191Z,100.00
2023-08-30T05:17:37.930Z,100.00
2023-08-30T05:20:09.616Z,100.00
2023-08-30T05:22:37.947Z,100.00
2023-08-30T05:25:06.959Z,100.00
2023-08-30T05:27:35.472Z,100.00
2023-08-30T05:30:04.349Z,100.00
2023-08-30T05:32:33.443Z,100.00
2023-08-30T05:35:21.690Z,100.00
2023-08-30T05:38:08.155Z,100.00
2023-08-30T05:41:02.377Z,100.00
2023-08-30T05:43:31.577Z,100.00
2023-08-30T05:46:03.729Z,100.00
2023-08-30T05:48:33.527Z,100.00
2023-08-30T05:51:03.920Z,100.00
2023-08-30T05:53:32.489Z,100.00
2023-08-30T05:56:01.520Z,100.00
2023-08-30T05:58:30.667Z,100.00
2023-08-30T06:01:01.096Z,100.00
2023-08-30T06:03:30.950Z,100.00
2023-08-30T06:05:59.578Z,100.00
2023-08-30T06:08:29.896Z,100.00
2023-08-30T06:10:58.212Z,100.00
2023-08-30T06:13:26.555Z,100.00
2023-08-30T06:15:55.328Z,100.00
2023-08-30T06:18:23.638Z,100.00
2023-08-30T06:20:52.081Z,100.00
2023-08-30T06:23:21.137Z,100.00
2023-08-30T06:25:56.976Z,100.00
2023-08-30T06:28:25.759Z,100.00
2023-08-30T06:30:54.298Z,100.00
2023-08-30T06:33:22.429Z,100.00
2023-08-30T06:35:51.778Z,100.00
2023-08-30T06:38:20.036Z,100.00
2023-08-30T06:40:48.666Z,100.00
2023-08-30T06:43:19.527Z,100.00
2023-08-30T06:45:48.425Z,100.00
2023-08-30T06:48:16.713Z,100.00
2023-08-30T06:50:44.920Z,100.00
2023-08-30T06:53:13.080Z,100.00
2023-08-30T06:55:41.296Z,100.00
2023-08-30T06:58:09.943Z,100.00
2023-08-30T07:00:39.901Z,100.00
2023-08-30T07:03:08.402Z,100.00
2023-08-30T07:05:36.749Z,100.00
2023-08-30T07:08:05.424Z,100.00
2023-08-30T07:10:35.973Z,100.00
2023-08-30T07:13:05.343Z,100.00
2023-08-30T07:15:35.360Z,100.00
2023-08-30T07:18:05.494Z,100.00
2023-08-30T07:20:33.856Z,100.00
2023-08-30T07:23:02.565Z,100.00
2023-08-30T07:25:31.824Z,100.00
2023-08-30T07:28:00.080Z,100.00
2023-08-30T07:30:29.316Z,100.00
2023-08-30T07:32:58.232Z,100.00
2023-08-30T07:35:27.859Z,100.00
2023-08-30T07:37:56.124Z,100.00
2023-08-30T07:40:27.574Z,100.00
2023-08-30T07:42:59.555Z,100.00
2023-08-30T07:45:28.747Z,100.00
2023-08-30T07:47:57.404Z,100.00
2023-08-30T07:50:27.109Z,100.00
2023-08-30T07:52:55.233Z,100.00
2023-08-30T07:55:23.586Z,100.00
2023-08-30T07:57:51.718Z,100.00
2023-08-30T08:00:20.313Z,100.00
2023-08-30T08:02:48.703Z,100.00
2023-08-30T08:05:17.781Z,100.00
2023-08-30T08:07:47.481Z,100.00
2023-08-30T08:10:15.767Z,100.00
2023-08-30T08:12:44.211Z,100.00
2023-08-30T08:15:12.761Z,100.00
2023-08-30T08:17:40.978Z,100.00
2023-08-30T08:20:09.945Z,100.00
2023-08-30T08:22:40.045Z,100.00
2023-08-30T08:25:11.706Z,100.00
2023-08-30T08:27:40.220Z,100.00
2023-08-30T08:30:10.580Z,100.00
2023-08-30T08:32:38.978Z,100.00
2023-08-30T08:35:08.320Z,100.00
2023-08-30T08:37:36.826Z,100.00
2023-08-30T08:40:09.653Z,100.00
2023-08-30T08:42:40.075Z,100.00
2023-08-30T08:45:11.020Z,100.00
2023-08-30T08:47:39.935Z,100.00
2023-08-30T08:50:09.077Z,100.00
2023-08-30T08:52:44.206Z,100.00
2023-08-30T08:55:23.578Z,100.00
2023-08-30T08:57:53.423Z,100.00
2023-08-30T09:00:21.815Z,100.00
2023-08-30T09:02:52.483Z,100.00
2023-08-30T09:05:21.676Z,100.00
2023-08-30T09:07:54.426Z,100.00
2023-08-30T09:10:23.463Z,100.00
2023-08-30T09:12:53.235Z,100.00
2023-08-30T09:15:22.596Z,100.00
2023-08-30T09:17:51.172Z,100.00
2023-08-30T09:20:21.821Z,100.00
2023-08-30T09:22:51.663Z,100.00
2023-08-30T09:25:26.501Z,100.00
2023-08-30T09:28:01.658Z,100.00
2023-08-30T09:30:30.663Z,100.00
2023-08-30T09:33:03.894Z,100.00
2023-08-30T09:35:32.176Z,100.00
2023-08-30T09:38:00.396Z,100.00
2023-08-30T09:40:30.182Z,100.00
2023-08-30T09:43:12.812Z,100.00
2023-08-30T09:45:42.560Z,100.00
2023-08-30T09:48:12.230Z,100.00
2023-08-30T09:50:44.059Z,100.00
2023-08-30T09:53:14.254Z,100.00
2023-08-30T09:55:45.087Z,100.00
2023-08-30T09:58:17.347Z,100.00
2023-08-30T10:00:48.153Z,100.00
2023-08-30T10:03:30.532Z,100.00
2023-08-30T10:06:04.081Z,100.00
2023-08-30T10:08:32.659Z,100.00
2023-08-30T10:11:02.921Z,100.00
2023-08-30T10:13:35.803Z,100.00
2023-08-30T10:16:06.550Z,100.00
2023-08-30T10:18:43.671Z,100.00
2023-08-30T10:21:20.669Z,100.00
2023-08-30T10:23:52.888Z,100.00
2023-08-30T10:26:21.998Z,100.00
2023-08-30T10:28:53.101Z,100.00
2023-08-30T10:31:21.473Z,100.00
2023-08-30T10:33:51.112Z,100.00
2023-08-30T10:36:24.417Z,100.00
2023-08-30T10:38:54.471Z,100.00
2023-08-30T10:41:24.049Z,100.00
2023-08-30T10:43:59.859Z,99.49
2023-08-30T10:46:35.758Z,95.13
2023-08-30T10:49:12.143Z,93.40
2023-08-30T10:51:41.833Z,90.13
2023-08-30T10:54:14.767Z,89.87
2023-08-30T10:56:50.348Z,88.84
2023-08-30T10:59:21.139Z,95.24
2023-08-30T11:01:50.576Z,92.49
2023-08-30T11:04:20.133Z,89.51
2023-08-30T11:06:50.052Z,84.64
2023-08-30T11:09:23.101Z,83.92
2023-08-30T11:11:56.130Z,76.35
2023-08-30T11:14:25.926Z,75.83
2023-08-30T11:16:54.139Z,85.56
2023-08-30T11:19:23.425Z,95.95
2023-08-30T11:21:51.659Z,92.85
2023-08-30T11:24:20.242Z,88.36
2023-08-30T11:26:49.777Z,90.02
2023-08-30T11:29:18.046Z,98.93
2023-08-30T11:31:48.317Z,87.14
2023-08-30T11:34:16.585Z,90.84
2023-08-30T11:36:44.878Z,89.37
2023-08-30T11:39:13.509Z,91.08
2023-08-30T11:41:42.043Z,88.53
2023-08-30T11:44:10.941Z,85.46
2023-08-30T11:46:39.256Z,86.41
2023-08-30T11:49:09.424Z,84.61
2023-08-30T11:51:39.150Z,84.26
2023-08-30T11:54:09.239Z,90.75
2023-08-30T11:56:38.254Z,92.18
2023-08-30T11:59:06.736Z,96.40
2023-08-30T12:01:35.692Z,95.44
2023-08-30T12:04:12.874Z,100.00
2023-08-30T12:06:41.076Z,99.93
2023-08-30T12:09:14.526Z,94.96
2023-08-30T12:11:43.782Z,97.08
2023-08-30T12:14:12.534Z,94.23
2023-08-30T12:16:42.200Z,95.61
2023-08-30T12:19:13.358Z,88.23
2023-08-30T12:21:42.894Z,88.24
2023-08-30T12:24:11.644Z,84.52
2023-08-30T12:26:40.310Z,77.47
2023-08-30T12:29:08.630Z,84.13
2023-08-30T12:31:37.018Z,87.98
2023-08-30T12:34:05.587Z,92.72
2023-08-30T12:36:35.524Z,94.59
2023-08-30T12:39:06.422Z,98.01
2023-08-30T12:41:34.859Z,97.80
2023-08-30T12:44:05.335Z,100.00
2023-08-30T12:46:36.317Z,100.00
2023-08-30T12:49:04.662Z,100.00
2023-08-30T12:51:33.467Z,100.00
2023-08-30T12:54:03.677Z,96.16
2023-08-30T12:56:32.198Z,87.96
2023-08-30T12:59:01.640Z,81.46
2023-08-30T13:01:31.070Z,92.37
2023-08-30T13:03:59.525Z,95.14
2023-08-30T13:06:27.801Z,96.91
2023-08-30T13:08:56.008Z,94.71
2023-08-30T13:11:27.799Z,93.17
2023-08-30T13:13:58.308Z,87.38
2023-08-30T13:16:26.938Z,89.64
2023-08-30T13:18:57.254Z,95.96
2023-08-30T13:21:35.263Z,85.82
2023-08-30T13:24:08.702Z,84.61
2023-08-30T13:26:38.898Z,78.59
2023-08-30T13:29:08.936Z,73.72
2023-08-30T13:31:37.200Z,72.21
2023-08-30T13:34:05.860Z,64.01
2023-08-30T13:36:34.535Z,60.25
2023-08-30T13:39:03.854Z,61.92
2023-08-30T13:41:31.968Z,54.63
2023-08-30T13:44:02.893Z,51.60
2023-08-30T13:46:31.537Z,49.56
2023-08-30T13:49:01.378Z,49.50
2023-08-30T13:51:29.613Z,49.91
2023-08-30T13:53:58.473Z,53.29
2023-08-30T13:56:28.800Z,49.83
2023-08-30T13:58:59.226Z,48.16
2023-08-30T14:01:29.033Z,47.95
2023-08-30T14:03:58.242Z,49.56
2023-08-30T14:06:26.475Z,48.00
2023-08-30T14:08:55.147Z,45.10
2023-08-30T14:11:23.812Z,47.28
2023-08-30T14:13:54.773Z,47.60
2023-08-30T14:16:26.625Z,47.31
2023-08-30T14:18:56.843Z,45.48
2023-08-30T14:21:25.092Z,46.82
2023-08-30T14:23:53.406Z,48.48
2023-08-30T14:26:22.248Z,48.26
2023-08-30T14:28:50.565Z,49.64
2023-08-30T14:31:19.661Z,48.77
2023-08-30T14:33:48.597Z,46.16
2023-08-30T14:36:18.248Z,46.96
2023-08-30T14:38:46.491Z,49.83
2023-08-30T14:41:17.286Z,49.69
2023-08-30T14:43:47.207Z,50.00
2023-08-30T14:46:22.537Z,52.47
2023-08-30T14:48:52.958Z,51.12
2023-08-30T14:51:23.073Z,51.30
2023-08-30T14:53:51.398Z,49.49
2023-08-30T14:56:20.046Z,51.18
2023-08-30T14:58:50.532Z,50.10
2023-08-30T15:01:18.878Z,48.89
2023-08-30T15:03:47.191Z,48.86
2023-08-30T15:06:16.407Z,51.29
2023-08-30T15:08:46.263Z,51.35
2023-08-30T15:11:14.881Z,50.47
2023-08-30T15:13:43.503Z,52.24
2023-08-30T15:16:13.111Z,54.92
2023-08-30T15:18:41.580Z,55.72
2023-08-30T15:21:09.958Z,58.78
2023-08-30T15:23:38.744Z,59.29
2023-08-30T15:26:09.123Z,57.44
2023-08-30T15:28:39.243Z,59.04
2023-08-30T15:31:07.937Z,56.02
2023-08-30T15:33:36.581Z,54.82
2023-08-30T15:36:05.724Z,59.47
2023-08-30T15:38:35.233Z,59.83
2023-08-30T15:41:04.194Z,62.00
2023-08-30T15:43:40.177Z,62.19
2023-08-30T15:46:08.719Z,65.05
2023-08-30T15:48:38.890Z,70.63
2023-08-30T15:51:16.351Z,70.82
2023-08-30T15:53:52.870Z,71.79
2023-08-30T15:56:21.757Z,74.74
2023-08-30T15:58:51.672Z,71.61
2023-08-30T16:01:21.756Z,69.25
2023-08-30T16:03:50.858Z,69.71
2023-08-30T16:06:19.708Z,69.35
2023-08-30T16:08:48.422Z,72.98
2023-08-30T16:11:18.155Z,71.53
2023-08-30T16:13:48.105Z,72.29
2023-08-30T16:16:17.757Z,72.16
2023-08-30T16:18:47.571Z,69.56
2023-08-30T16:21:15.798Z,70.92
2023-08-30T16:23:44.549Z,70.95
2023-08-30T16:26:12.811Z,73.96
2023-08-30T16:28:41.313Z,71.36
2023-08-30T16:31:13.741Z,72.37
2023-08-30T16:33:43.591Z,72.85
2023-08-30T16:36:12.146Z,74.87
2023-08-30T16:38:41.354Z,77.08
2023-08-30T16:41:10.644Z,76.97
2023-08-30T16:43:39.080Z,79.12
2023-08-30T16:46:09.758Z,79.16
2023-08-30T16:48:38.050Z,80.43
2023-08-30T16:51:09.648Z,81.55
2023-08-30T16:53:39.183Z,81.33
2023-08-30T16:56:07.467Z,85.49
2023-08-30T16:58:37.897Z,88.06
2023-08-30T17:01:10.975Z,87.42
2023-08-30T17:03:39.506Z,93.97
2023-08-30T17:06:09.208Z,92.97
2023-08-30T17:08:37.810Z,96.39
2023-08-30T17:11:06.725Z,94.34
2023-08-30T17:13:36.332Z,95.84
2023-08-30T17:16:08.874Z,95.91
2023-08-30T17:18:38.949Z,96.54
2023-08-30T17:21:11.004Z,98.23
2023-08-30T17:23:40.586Z,97.56
2023-08-30T17:26:10.334Z,99.70
2023-08-30T17:28:39.223Z,99.99
2023-08-30T17:31:08.804Z,100.00
2023-08-30T17:33:39.032Z,100.00
2023-08-30T17:36:10.380Z,100.00
2023-08-30T17:38:40.256Z,100.00
2023-08-30T17:41:12.484Z,100.00
2023-08-30T17:43:41.790Z,100.00
2023-08-30T17:46:10.242Z,100.00
2023-08-30T17:48:40.241Z,100.00
2023-08-30T17:51:10.042Z,100.00
2023-08-30T17:53:39.921Z,100.00
2023-08-30T17:56:09.400Z,100.00
2023-08-30T17:58:38.265Z,100.00
2023-08-30T18:01:10.821Z,100.00
2023-08-30T18:03:39.626Z,100.00
2023-08-30T18:06:13.849Z,100.00
2023-08-30T18:08:42.954Z,100.00
2023-08-30T18:11:14.456Z,100.00
2023-08-30T18:13:43.300Z,100.00
2023-08-30T18:16:13.166Z,100.00
2023-08-30T18:18:42.001Z,100.00
2023-08-30T18:21:13.134Z,100.00
2023-08-30T18:23:43.647Z,100.00
2023-08-30T18:26:12.574Z,100.00
2023-08-30T18:28:40.939Z,100.00
2023-08-30T18:31:09.681Z,100.00
2023-08-30T18:33:37.849Z,100.00
2023-08-30T18:36:07.689Z,100.00
2023-08-30T18:38:39.522Z,100.00
2023-08-30T18:41:16.893Z,100.00
2023-08-30T18:43:46.327Z,100.00
2023-08-30T18:46:19.715Z,100.00
2023-08-30T18:48:49.139Z,100.00
2023-08-30T18:51:18.134Z,100.00
2023-08-30T18:53:48.226Z,100.00
2023-08-30T18:56:17.469Z,100.00
2023-08-30T18:58:46.027Z,100.00
2023-08-30T19:01:16.760Z,100.00
2023-08-30T19:03:47.583Z,100.00
2023-08-30T19:06:17.449Z,100.00
2023-08-30T19:08:49.428Z,100.00
2023-08-30T19:11:18.396Z,100.00
2023-08-30T19:13:48.144Z,100.00
2023-08-30T19:16:18.552Z,100.00
2023-08-30T19:18:47.462Z,100.00
2023-08-30T19:21:16.049Z,100.00
2023-08-30T19:23:45.682Z,100.00
2023-08-30T19:26:15.453Z,100.00
2023-08-30T19:28:43.969Z,100.00
2023-08-30T19:31:12.720Z,100.00
2023-08-30T19:33:43.240Z,100.00
2023-08-30T19:36:11.834Z,100.00
2023-08-30T19:38:40.161Z,100.00
2023-08-30T19:41:08.773Z,100.00
2023-08-30T19:43:38.533Z,100.00
2023-08-30T19:46:08.524Z,100.00
2023-08-30T19:48:37.047Z,100.00
2023-08-30T19:51:06.487Z,100.00
2023-08-30T19:53:34.868Z,100.00
2023-08-30T19:56:07.145Z,100.00
2023-08-30T19:58:35.764Z,100.00
2023-08-30T20:01:07.184Z,100.00
2023-08-30T20:03:36.168Z,100.00
2023-08-30T20:06:05.510Z,100.00
2023-08-30T20:08:34.240Z,100.00
2023-08-30T20:11:04.495Z,100.00
2023-08-30T20:13:33.207Z,100.00
2023-08-30T20:16:03.573Z,100.00
2023-08-30T20:18:34.091Z,100.00
2023-08-30T20:21:05.792Z,100.00
2023-08-30T20:23:34.289Z,100.00
2023-08-30T20:26:02.593Z,100.00
2023-08-30T20:28:31.721Z,100.00
2023-08-30T20:31:02.432Z,100.00
2023-08-30T20:33:31.762Z,100.00
2023-08-30T20:36:06.268Z,100.00
2023-08-30T20:38:36.232Z,100.00
2023-08-30T20:41:06.640Z,100.00
2023-08-30T20:43:35.213Z,100.00
2023-08-30T20:46:04.504Z,100.00
2023-08-30T20:48:33.793Z,100.00
2023-08-30T20:51:06.044Z,100.00
2023-08-30T20:53:36.817Z,100.00
2023-08-30T20:56:08.414Z,100.00
2023-08-30T20:58:42.439Z,100.00
2023-08-30T21:01:11.002Z,100.00
2023-08-30T21:03:40.205Z,100.00
2023-08-30T21:06:10.403Z,100.00
2023-08-30T21:08:39.753Z,100.00
2023-08-30T21:11:11.281Z,100.00
2023-08-30T21:13:39.588Z,100.00
2023-08-30T21:16:08.451Z,100.00
2023-08-30T21:18:36.849Z,100.00
2023-08-30T21:21:05.503Z,100.00
2023-08-30T21:23:35.225Z,100.00
2023-08-30T21:26:04.353Z,100.00
2023-08-30T21:28:33.584Z,100.00
2023-08-30T21:31:03.548Z,100.00
2023-08-30T21:33:31.973Z,100.00
2023-08-30T21:36:00.907Z,100.00
2023-08-30T21:38:29.373Z,100.00
2023-08-30T21:40:59.695Z,100.00
2023-08-30T21:43:28.360Z,100.00
2023-08-30T21:45:56.712Z,100.00
2023-08-30T21:48:24.979Z,100.00
2023-08-30T21:50:53.351Z,100.00
2023-08-30T21:53:21.541Z,100.00
2023-08-30T21:55:49.787Z,100.00
2023-08-30T21:58:19.742Z,100.00
2023-08-30T22:00:48.179Z,100.00
2023-08-30T22:03:16.676Z,100.00
2023-08-30T22:05:45.521Z,100.00
2023-08-30T22:08:14.541Z,100.00
2023-08-30T22:10:43.315Z,100.00
2023-08-30T22:13:12.928Z,100.00
2023-08-30T22:15:42.800Z,100.00
2023-08-30T22:18:11.211Z,100.00
2023-08-30T22:20:39.757Z,100.00
2023-08-30T22:23:08.420Z,100.00
2023-08-30T22:25:40.209Z,100.00
2023-08-30T22:28:08.742Z,100.00
2023-08-30T22:30:38.863Z,100.00
2023-08-30T22:33:11.157Z,100.00
2023-08-30T22:35:40.033Z,100.00
2023-08-30T22:38:08.575Z,100.00
2023-08-30T22:40:36.864Z,100.00
2023-08-30T22:43:05.931Z,100.00
2023-08-30T22:45:34.451Z,100.00
2023-08-30T22:48:02.899Z,100.00
2023-08-30T22:50:32.643Z,100.00
2023-08-30T22:53:03.216Z,100.00
2023-08-30T22:55:32.440Z,100.00
2023-08-30T22:58:04.632Z,100.00
2023-08-30T23:00:37.826Z,100.00
2023-08-30T23:03:11.412Z,100.00
2023-08-30T23:05:43.522Z,100.00
2023-08-30T23:08:12.476Z,100.00
2023-08-30T23:10:40.869Z,100.00
2023-08-30T23:13:09.491Z,100.00
2023-08-30T23:15:38.523Z,100.00
2023-08-30T23:18:08.504Z,100.00
2023-08-30T23:20:37.243Z,100.00
2023-08-30T23:23:11.079Z,100.00
2023-08-30T23:25:40.465Z,100.00
2023-08-30T23:28:08.929Z,100.00
2023-08-30T23:30:37.596Z,100.00
2023-08-30T23:33:06.753Z,100.00
2023-08-30T23:35:35.555Z,100.00
2023-08-30T23:38:04.228Z,100.00
2023-08-30T23:40:34.257Z,100.00
2023-08-30T23:43:03.382Z,100.00
2023-08-30T23:45:32.641Z,100.00
2023-08-30T23:48:01.264Z,100.00
2023-08-30T23:50:31.825Z,100.00
2023-08-30T23:53:00.759Z,100.00
2023-08-30T23:55:29.336Z,100.00
2023-08-30T23:58:00.120Z,100.00
